Forside
METAR-TAF:

METAR-TAF

Lufthavne :

Aberdeen Airport

Aberdeen, Skotland

Breddekreds: 57-12N, længdekreds: 002-13W, højde: 65 m

Aktuelle vejr

Denne rapport blev lavet for 38 minutter siden, kl. 13:50 UTC
Vind 11 kt fra vestnordvest, varierende mellem vest og nordnordvest
Temperatur 10°C
Fugtighed 57%
Tryk 1031 hPa
Sigt 10 km eller mere
Nogle få skyer i en højde af 3500 ft
Spredte skyer i en højde af 4500 ft

METAR: EGPD 311350Z 30011KT 260V330 9999 FEW035 SCT045 10/02 Q1031

Tid: 15:28 (14:28 UTC)

Vejrudsigter

Denne rapport blev lavet for 3 timer og 23 minutter siden, kl. 11:05 UTC
Foreløbig gælder fra 31 på 12 UTC til 01 på 12 UTC
Vind 9 kt fra vestnordvest
Sigt 10 km eller mere
Nogle få skyer i en højde af 3000 ft
Brudte skyer i en højde af 4000 ft

TAF: EGPD 311105Z 3112/0112 29009KT 9999 FEW030 BKN040

Vejrobservationer og prognoser fra mere end 4000 lufthavne (METAR og TAF).

De gule og røde prikker repræsenterer de meteorologiske stationer.

Flyt musen over at se navnet på stationen.

Så klik over at se vejr observationer og prognoser.

At skifte det kort: Klik på de grønne knapper med et sort kors for at zoome ind; på den grønne knap med en bindestreg for at zoome ud; eller på de grønne pile for tilstødende kort.


METAR-TAF: